createdAt,value
2018-12-24T00:02:11.673Z,12.10
2018-12-24T00:04:40.829Z,12.00
2018-12-24T00:07:29.176Z,11.90
2018-12-24T00:10:36.644Z,12.10
2018-12-24T00:13:28.158Z,12.10
2018-12-24T00:16:16.878Z,12.00
2018-12-24T00:19:05.271Z,12.00
2018-12-24T00:21:53.971Z,11.80
2018-12-24T00:24:42.486Z,11.90
2018-12-24T00:33:25.669Z,12.40
2018-12-24T00:36:13.964Z,12.20
2018-12-24T00:39:21.506Z,12.10
2018-12-24T00:42:15.795Z,12.10
2018-12-24T00:45:00.294Z,12.40
2018-12-24T00:47:48.725Z,12.10
2018-12-24T00:50:49.409Z,12.20
2018-12-24T00:53:20.419Z,12.20
2018-12-24T00:59:14.362Z,12.30
2018-12-24T01:01:55.307Z,12.50
2018-12-24T01:04:36.398Z,12.50
2018-12-24T01:07:17.133Z,12.40
2018-12-24T01:09:58.785Z,12.00
2018-12-24T01:12:40.122Z,11.70
2018-12-24T01:17:51.879Z,11.00
2018-12-24T01:20:40.338Z,10.50
2018-12-24T01:23:09.645Z,10.40
2018-12-24T01:25:58.168Z,10.30
2018-12-24T01:28:47.157Z,10.10
2018-12-24T01:31:37.469Z,9.80
2018-12-24T01:34:26.769Z,9.60
2018-12-24T01:37:17.604Z,9.60
2018-12-24T01:43:32.531Z,9.60
2018-12-24T01:46:20.893Z,9.40
2018-12-24T01:49:09.578Z,9.30
2018-12-24T01:54:34.996Z,9.50
2018-12-24T01:57:15.789Z,9.40
2018-12-24T01:59:45.312Z,9.30
2018-12-24T02:02:33.840Z,9.60
2018-12-24T02:05:22.249Z,9.60
2018-12-24T02:08:10.814Z,9.90
2018-12-24T02:10:59.305Z,10.00
2018-12-24T02:13:48.133Z,9.60
2018-12-24T02:16:19.488Z,9.80
2018-12-24T02:19:10.435Z,9.70
2018-12-24T02:22:20.672Z,9.60
2018-12-24T02:25:09.327Z,9.50
2018-12-24T02:27:59.099Z,9.50
2018-12-24T02:30:48.997Z,9.40
2018-12-24T02:33:37.829Z,8.90
2018-12-24T02:36:26.809Z,9.00
2018-12-24T02:38:56.913Z,8.90
2018-12-24T02:41:57.397Z,8.90
2018-12-24T02:44:35.348Z,8.80
2018-12-24T02:47:24.238Z,8.70
2018-12-24T02:50:12.765Z,8.60
2018-12-24T02:52:54.451Z,8.40
2018-12-24T02:55:35.686Z,8.30
2018-12-24T03:00:59.486Z,8.20
2018-12-24T03:08:47.725Z,8.50
2018-12-24T03:11:36.970Z,7.90
2018-12-24T03:14:25.997Z,7.70
2018-12-24T03:17:15.499Z,7.20
2018-12-24T03:20:04.079Z,7.30
2018-12-24T03:22:53.145Z,7.30
2018-12-24T03:25:41.489Z,7.20
2018-12-24T03:28:29.925Z,7.20
2018-12-24T03:31:18.352Z,7.10
2018-12-24T03:33:47.694Z,7.00
2018-12-24T03:36:36.145Z,7.10
2018-12-24T03:39:26.173Z,7.00
2018-12-24T03:42:14.744Z,7.00
2018-12-24T03:44:44.027Z,6.80
2018-12-24T03:47:32.998Z,7.00
2018-12-24T03:50:21.365Z,7.20
2018-12-24T03:55:33.487Z,7.40
2018-12-24T03:58:21.908Z,7.60
2018-12-24T04:01:10.721Z,7.70
2018-12-24T04:03:59.112Z,7.40
2018-12-24T04:06:47.598Z,7.40
2018-12-24T04:09:35.934Z,7.00
2018-12-24T04:12:24.465Z,6.80
2018-12-24T04:14:53.637Z,6.80
2018-12-24T04:17:41.946Z,6.90
2018-12-24T04:20:30.329Z,6.70
2018-12-24T04:23:18.652Z,6.70
2018-12-24T04:25:47.842Z,6.90
2018-12-24T04:28:36.151Z,6.80
2018-12-24T04:31:43.483Z,6.80
2018-12-24T04:34:31.788Z,6.70
2018-12-24T04:37:20.371Z,6.90
2018-12-24T04:40:08.747Z,7.00
2018-12-24T04:42:57.372Z,7.00
2018-12-24T04:45:45.835Z,6.80
2018-12-24T04:48:34.169Z,6.60
2018-12-24T04:51:23.557Z,6.70
2018-12-24T04:54:04.986Z,6.60
2018-12-24T04:56:45.651Z,6.60
2018-12-24T04:59:26.862Z,6.10
2018-12-24T05:02:11.664Z,6.20
2018-12-24T05:04:53.132Z,6.20
2018-12-24T05:07:34.597Z,6.00
2018-12-24T05:10:15.269Z,6.40
2018-12-24T05:12:56.810Z,6.40
2018-12-24T05:15:41.526Z,6.40
2018-12-24T05:18:24.924Z,6.60
2018-12-24T05:21:06.069Z,6.60
2018-12-24T05:26:29.640Z,6.90
2018-12-24T05:29:10.979Z,6.80
2018-12-24T05:31:52.535Z,7.00
2018-12-24T05:34:33.883Z,6.90
2018-12-24T05:37:03.294Z,6.70
2018-12-24T05:39:51.949Z,6.80
2018-12-24T05:42:40.491Z,7.00
2018-12-24T05:45:28.825Z,7.10
2018-12-24T05:48:17.314Z,7.20
2018-12-24T05:50:46.714Z,7.40
2018-12-24T05:53:27.407Z,7.30
2018-12-24T05:56:08.852Z,7.50
2018-12-24T05:58:50.204Z,7.10
2018-12-24T06:01:31.838Z,7.10
2018-12-24T06:04:12.877Z,7.10
2018-12-24T06:06:54.287Z,7.40
2018-12-24T06:09:35.427Z,7.40
2018-12-24T06:12:16.512Z,7.50
2018-12-24T06:14:57.799Z,7.60
2018-12-24T06:17:39.170Z,7.40
2018-12-24T06:20:20.359Z,7.20
2018-12-24T06:25:50.639Z,7.50
2018-12-24T06:28:33.441Z,7.40
2018-12-24T06:31:15.198Z,7.30
2018-12-24T06:33:56.777Z,7.40
2018-12-24T06:36:37.559Z,7.50
2018-12-24T06:39:19.308Z,7.70
2018-12-24T06:42:00.465Z,7.90
2018-12-24T06:44:41.634Z,7.90
2018-12-24T06:47:22.508Z,7.90
2018-12-24T06:50:03.719Z,8.10
2018-12-24T06:53:07.417Z,8.10
2018-12-24T06:55:37.185Z,8.00
2018-12-24T06:58:25.564Z,7.70
2018-12-24T07:00:56.770Z,7.70
2018-12-24T07:03:45.328Z,7.60
2018-12-24T07:06:33.814Z,7.60
2018-12-24T07:09:04.413Z,7.60
2018-12-24T07:11:34.120Z,7.70
2018-12-24T07:14:23.266Z,7.70
2018-12-24T07:17:11.936Z,7.90
2018-12-24T07:19:41.758Z,7.50
2018-12-24T07:22:10.969Z,7.50
2018-12-24T07:24:59.562Z,7.50
2018-12-24T07:27:48.395Z,7.50
2018-12-24T07:30:36.739Z,7.60
2018-12-24T07:33:25.191Z,7.50
2018-12-24T07:36:13.800Z,7.50
2018-12-24T07:39:02.253Z,7.60
2018-12-24T07:41:50.646Z,7.50
2018-12-24T07:44:39.380Z,7.60
2018-12-24T07:47:28.573Z,7.60
2018-12-24T07:49:58.496Z,7.60
2018-12-24T07:52:28.551Z,7.70
2018-12-24T07:55:17.083Z,7.60
2018-12-24T07:58:05.655Z,7.70
2018-12-24T08:00:56.876Z,7.60
2018-12-24T08:03:45.271Z,7.80
2018-12-24T08:06:33.900Z,7.70
2018-12-24T08:09:22.324Z,7.50
2018-12-24T08:12:12.813Z,7.50
2018-12-24T08:18:08.352Z,7.50
2018-12-24T08:20:56.710Z,7.80
2018-12-24T08:23:45.282Z,8.10
2018-12-24T08:26:33.595Z,8.10
2018-12-24T08:29:21.899Z,8.20
2018-12-24T08:32:11.603Z,8.20
2018-12-24T08:35:00.866Z,8.10
2018-12-24T08:37:49.482Z,8.20
2018-12-24T08:40:38.040Z,8.40
2018-12-24T08:43:09.120Z,8.10
2018-12-24T08:45:57.462Z,8.40
2018-12-24T08:48:48.179Z,8.70
2018-12-24T08:51:36.584Z,8.60
2018-12-24T08:57:19.166Z,8.30
2018-12-24T09:00:07.966Z,8.60
2018-12-24T09:03:18.412Z,8.70
2018-12-24T09:06:06.953Z,8.60
2018-12-24T09:08:55.424Z,8.50
2018-12-24T09:11:24.679Z,8.60
2018-12-24T09:14:13.186Z,8.80
2018-12-24T09:17:01.579Z,9.10
2018-12-24T09:19:50.546Z,9.10
2018-12-24T09:22:19.790Z,9.20
2018-12-24T09:25:08.197Z,9.20
2018-12-24T09:27:56.628Z,9.20
2018-12-24T09:30:38.195Z,9.60
2018-12-24T09:33:19.797Z,10.00
2018-12-24T09:36:02.403Z,10.60
2018-12-24T09:38:43.228Z,10.80
2018-12-24T09:41:24.416Z,10.80
2018-12-24T09:44:06.418Z,10.20
2018-12-24T09:46:47.706Z,10.00
2018-12-24T09:49:29.318Z,9.70
2018-12-24T09:52:08.565Z,9.50
2018-12-24T09:55:16.760Z,9.30
2018-12-24T09:58:26.006Z,9.30
2018-12-24T10:01:14.383Z,8.60
2018-12-24T10:04:06.897Z,8.40
2018-12-24T10:10:04.846Z,8.40
2018-12-24T10:12:53.392Z,8.60
2018-12-24T10:15:41.937Z,9.10
2018-12-24T10:18:30.470Z,9.80
2018-12-24T10:24:12.488Z,10.30
2018-12-24T10:30:08.272Z,10.90
2018-12-24T10:32:56.622Z,11.20
2018-12-24T10:35:45.179Z,12.20
2018-12-24T10:41:13.924Z,13.90
2018-12-24T10:44:02.338Z,13.70
2018-12-24T10:46:43.742Z,13.10
2018-12-24T10:52:11.285Z,12.30
2018-12-24T10:54:51.893Z,12.30
2018-12-24T10:57:32.590Z,12.40
2018-12-24T11:00:04.152Z,13.30
2018-12-24T11:02:33.287Z,14.80
2018-12-24T11:05:04.931Z,14.50
2018-12-24T11:07:53.481Z,13.70
2018-12-24T11:10:42.057Z,12.60
2018-12-24T11:13:30.763Z,11.60
2018-12-24T11:16:00.226Z,11.20
2018-12-24T11:21:25.811Z,10.90
2018-12-24T11:24:14.239Z,10.90
2018-12-24T11:26:56.749Z,10.90
2018-12-24T11:29:38.164Z,10.90
2018-12-24T11:32:27.577Z,11.10
2018-12-24T11:37:51.652Z,11.40
2018-12-24T11:40:33.100Z,11.30
2018-12-24T11:43:14.455Z,11.10
2018-12-24T11:48:40.767Z,10.60
2018-12-24T11:51:10.490Z,10.80
2018-12-24T11:53:58.882Z,10.70
2018-12-24T11:56:55.003Z,10.60
2018-12-24T11:59:24.320Z,10.40
2018-12-24T12:02:12.685Z,10.40
2018-12-24T12:05:01.440Z,10.50
2018-12-24T12:07:49.852Z,10.60
2018-12-24T12:10:19.053Z,10.70
2018-12-24T12:13:26.721Z,10.50
2018-12-24T12:16:15.516Z,10.60
2018-12-24T12:19:04.114Z,10.90
2018-12-24T12:22:07.801Z,10.90
2018-12-24T12:24:42.857Z,11.00
2018-12-24T12:27:31.844Z,11.00
2018-12-24T12:30:01.451Z,11.20
2018-12-24T12:32:50.512Z,11.50
2018-12-24T12:40:58.287Z,11.70
2018-12-24T12:43:46.684Z,11.60
2018-12-24T12:46:15.837Z,11.40
2018-12-24T12:49:06.401Z,11.10
2018-12-24T12:51:35.623Z,10.60
2018-12-24T12:54:05.520Z,10.40
2018-12-24T12:56:54.053Z,10.60
2018-12-24T12:59:42.417Z,10.30
2018-12-24T13:02:30.846Z,10.30
2018-12-24T13:05:19.335Z,10.80
2018-12-24T13:08:07.883Z,11.40
2018-12-24T13:10:56.949Z,11.50
2018-12-24T13:13:45.581Z,11.40
2018-12-24T13:16:26.255Z,11.40
2018-12-24T13:18:55.533Z,11.40
2018-12-24T13:21:44.008Z,11.70
2018-12-24T13:24:32.490Z,11.90
2018-12-24T13:27:20.882Z,11.00
2018-12-24T13:29:50.085Z,10.20
2018-12-24T13:32:19.309Z,9.90
2018-12-24T13:35:07.957Z,9.30
2018-12-24T13:37:37.142Z,8.70
2018-12-24T13:40:06.489Z,8.30
2018-12-24T13:42:35.674Z,8.20
2018-12-24T13:45:24.090Z,8.00
2018-12-24T13:48:12.679Z,7.80
2018-12-24T13:51:01.144Z,7.80
2018-12-24T13:54:09.110Z,7.70
2018-12-24T13:56:38.388Z,7.80
2018-12-24T13:59:26.719Z,8.00
2018-12-24T14:01:56.328Z,8.20
2018-12-24T14:04:45.217Z,7.70
2018-12-24T14:07:14.461Z,7.70
2018-12-24T14:10:02.903Z,7.50
2018-12-24T14:12:51.227Z,7.40
2018-12-24T14:15:39.676Z,7.50
2018-12-24T14:18:21.012Z,7.90
2018-12-24T14:21:02.634Z,8.20
2018-12-24T14:23:43.638Z,8.30
2018-12-24T14:26:25.494Z,8.60
2018-12-24T14:29:06.562Z,8.70
2018-12-24T14:34:31.965Z,8.90
2018-12-24T14:37:01.213Z,8.80
2018-12-24T14:39:30.602Z,9.00
2018-12-24T14:42:19.329Z,8.90
2018-12-24T14:45:22.926Z,9.00
2018-12-24T14:47:57.933Z,8.90
2018-12-24T14:50:27.196Z,9.00
2018-12-24T14:52:56.523Z,9.00
2018-12-24T14:55:44.810Z,8.80
2018-12-24T14:58:33.596Z,8.80
2018-12-24T15:01:21.987Z,8.90
2018-12-24T15:04:10.401Z,8.90
2018-12-24T15:06:39.822Z,8.70
2018-12-24T15:09:09.619Z,8.80
2018-12-24T15:11:58.071Z,8.60
2018-12-24T15:14:46.827Z,8.60
2018-12-24T15:17:35.327Z,8.60
2018-12-24T15:22:58.937Z,8.70
2018-12-24T15:25:47.447Z,8.50
2018-12-24T15:28:35.886Z,8.30
2018-12-24T15:31:24.525Z,8.30
2018-12-24T15:34:32.823Z,8.50
2018-12-24T15:37:21.464Z,8.60
2018-12-24T15:40:10.268Z,8.70
2018-12-24T15:42:58.805Z,8.70
2018-12-24T15:45:47.232Z,8.60
2018-12-24T15:48:16.742Z,8.70
2018-12-24T15:53:40.800Z,8.90
2018-12-24T15:58:59.318Z,9.10
2018-12-24T16:01:49.662Z,9.10
2018-12-24T16:04:38.486Z,9.20
2018-12-24T16:07:57.921Z,9.20
2018-12-24T16:13:41.044Z,9.20
2018-12-24T16:19:25.332Z,9.30
2018-12-24T16:22:29.119Z,9.30
2018-12-24T16:25:09.513Z,9.30
2018-12-24T16:30:35.355Z,9.20
2018-12-24T16:33:23.716Z,9.30
2018-12-24T16:36:12.165Z,9.30
2018-12-24T16:39:00.999Z,9.30
2018-12-24T16:41:49.309Z,9.30
2018-12-24T16:44:57.189Z,9.10
2018-12-24T16:47:45.570Z,9.20
2018-12-24T16:50:14.691Z,9.10
2018-12-24T16:53:03.423Z,9.00
2018-12-24T16:55:51.885Z,9.00
2018-12-24T17:01:30.708Z,9.20
2018-12-24T17:04:12.328Z,9.10
2018-12-24T17:06:56.748Z,9.20
2018-12-24T17:09:26.007Z,9.30
2018-12-24T17:12:14.403Z,9.20
2018-12-24T17:15:03.254Z,9.30
2018-12-24T17:17:51.574Z,9.30
2018-12-24T17:20:59.109Z,9.30
2018-12-24T17:23:47.394Z,9.30
2018-12-24T17:26:35.885Z,9.40
2018-12-24T17:29:24.474Z,9.40
2018-12-24T17:32:05.714Z,9.50
2018-12-24T17:34:34.846Z,9.40
2018-12-24T17:37:35.770Z,9.30
2018-12-24T17:40:13.323Z,9.00
2018-12-24T17:43:04.427Z,8.50
2018-12-24T17:46:05.226Z,8.20
2018-12-24T17:48:43.218Z,8.10
2018-12-24T17:51:12.549Z,7.70
2018-12-24T17:53:41.721Z,7.70
2018-12-24T17:56:30.125Z,7.80
2018-12-24T17:58:59.602Z,7.90
2018-12-24T18:01:28.802Z,7.60
2018-12-24T18:04:17.206Z,7.20
2018-12-24T18:07:05.876Z,7.30
2018-12-24T18:09:54.224Z,7.40
2018-12-24T18:12:42.831Z,7.10
2018-12-24T18:15:31.316Z,7.10
2018-12-24T18:18:20.101Z,7.10
2018-12-24T18:21:10.798Z,7.20
2018-12-24T18:23:40.522Z,7.30
2018-12-24T18:26:29.215Z,7.40
2018-12-24T18:28:58.936Z,7.50
2018-12-24T18:31:40.064Z,7.60
2018-12-24T18:34:21.108Z,7.50
2018-12-24T18:37:02.062Z,7.50
2018-12-24T18:39:43.042Z,7.50
2018-12-24T18:42:24.018Z,7.50
2018-12-24T18:44:54.211Z,7.20
2018-12-24T18:47:42.880Z,6.90
2018-12-24T18:50:31.379Z,6.70
2018-12-24T18:53:20.003Z,6.30
2018-12-24T18:56:08.558Z,6.40
2018-12-24T18:58:56.904Z,6.30
2018-12-24T19:01:45.258Z,6.10
2018-12-24T19:07:22.115Z,6.10
2018-12-24T19:10:30.235Z,6.10
2018-12-24T19:18:41.930Z,6.10
2018-12-24T19:21:11.125Z,6.10
2018-12-24T19:23:59.570Z,6.30
2018-12-24T19:26:48.024Z,6.40
2018-12-24T19:29:36.378Z,6.60
2018-12-24T19:32:47.414Z,6.80
2018-12-24T19:35:35.936Z,7.00
2018-12-24T19:41:20.212Z,7.30
2018-12-24T19:44:08.610Z,7.40
2018-12-24T19:46:49.460Z,7.50
2018-12-24T19:49:31.400Z,7.50
2018-12-24T19:52:12.479Z,7.50
2018-12-24T19:54:54.120Z,7.50
2018-12-24T19:57:35.557Z,7.50
2018-12-24T20:00:16.522Z,7.60
2018-12-24T20:02:57.852Z,7.70
2018-12-24T20:05:39.366Z,7.50
2018-12-24T20:08:20.862Z,7.50
2018-12-24T20:10:50.118Z,7.30
2018-12-24T20:13:20.320Z,7.10
2018-12-24T20:15:50.159Z,7.20
2018-12-24T20:18:40.135Z,7.30
2018-12-24T20:21:28.821Z,7.40
2018-12-24T20:24:17.748Z,7.30
2018-12-24T20:27:06.298Z,7.20
2018-12-24T20:30:14.836Z,7.40
2018-12-24T20:32:44.161Z,7.30
2018-12-24T20:35:33.226Z,7.20
2018-12-24T20:38:21.718Z,7.30
2018-12-24T20:41:10.409Z,7.50
2018-12-24T20:43:40.106Z,7.40
2018-12-24T20:46:29.269Z,7.00
2018-12-24T20:52:09.851Z,7.00
2018-12-24T21:05:00.859Z,6.90
2018-12-24T21:08:08.390Z,6.70
2018-12-24T21:10:57.051Z,6.90
2018-12-24T21:13:26.495Z,6.90
2018-12-24T21:15:56.176Z,7.00
2018-12-24T21:18:44.611Z,7.00
2018-12-24T21:21:32.934Z,7.20
2018-12-24T21:24:33.973Z,7.00
2018-12-24T21:27:15.416Z,6.80
2018-12-24T21:30:04.034Z,6.90
2018-12-24T21:32:52.421Z,7.10
2018-12-24T21:35:41.674Z,7.30
2018-12-24T21:38:30.034Z,7.20
2018-12-24T21:41:18.623Z,7.00
2018-12-24T21:44:07.278Z,6.90
2018-12-24T21:46:56.035Z,6.80
2018-12-24T21:49:45.939Z,7.00
2018-12-24T21:52:34.551Z,6.90
2018-12-24T21:55:22.864Z,6.80
2018-12-24T21:58:11.306Z,6.80
2018-12-24T22:00:59.944Z,6.70
2018-12-24T22:03:29.560Z,6.90
2018-12-24T22:06:18.190Z,6.80
2018-12-24T22:08:47.474Z,6.50
2018-12-24T22:11:36.163Z,6.70
2018-12-24T22:17:01.482Z,7.00
2018-12-24T22:19:49.854Z,6.80
2018-12-24T22:22:38.663Z,6.50
2018-12-24T22:25:08.640Z,6.60
2018-12-24T22:27:56.960Z,6.80
2018-12-24T22:30:45.272Z,6.80
2018-12-24T22:33:52.778Z,6.90
2018-12-24T22:36:41.434Z,6.80
2018-12-24T22:39:29.920Z,7.00
2018-12-24T22:42:18.402Z,7.10
2018-12-24T22:45:07.875Z,7.10
2018-12-24T22:47:57.096Z,7.10
2018-12-24T22:50:26.401Z,7.10
2018-12-24T22:53:15.541Z,7.00
2018-12-24T22:56:05.201Z,6.90
2018-12-24T22:58:35.634Z,6.80
2018-12-24T23:04:27.957Z,6.60
2018-12-24T23:07:09.823Z,6.40
2018-12-24T23:09:40.013Z,6.40
2018-12-24T23:12:29.189Z,6.30
2018-12-24T23:15:18.147Z,6.30
2018-12-24T23:18:07.665Z,6.20
2018-12-24T23:20:56.345Z,6.20
2018-12-24T23:23:26.614Z,6.20
2018-12-24T23:26:15.577Z,6.10
2018-12-24T23:29:04.411Z,6.10
2018-12-24T23:31:53.239Z,6.10
2018-12-24T23:34:41.601Z,6.10
2018-12-24T23:37:22.750Z,6.00
2018-12-24T23:40:03.787Z,6.10
2018-12-24T23:42:45.370Z,6.10
2018-12-24T23:45:27.027Z,6.20
2018-12-24T23:48:07.830Z,6.30
2018-12-24T23:50:37.787Z,6.30
2018-12-24T23:53:29.280Z,6.40
2018-12-24T23:56:17.770Z,6.40
2018-12-24T23:59:06.234Z,6.40
